»·PEaware :: SWA6159 KLAS-KSAN

SWA6159 :: KLAS-KSAN

FLIGHT INFORMATION

Flight Status: Arrived
Operator:
Southwest Airlines
More flights by this operator :: More flights under this callsign
Pilot: Cody B. (17747)
Aircraft: BOEING 737-800
(B738)
More flights by this aircraft type
Origin: KLAS McCarran Intl
United States
Destination: KSAN San Diego Intl-Lindbergh
United States
More flights between these airports :: More routes between these airports
Route: +BOACH8 LVELL LUCKI1
File this flight plan on PilotEdge
Remarks:
Altitude:
(Current/Filed)
24,000ft
Speed:
(Current/Filed)
450kts
Departed: 10-Jan-18 01:48 PM
Arrived: 10-Jan-18 02:54 PM
Distance/Time
Traveled:
225nm/1:05
Distance/Time
To Go:
Arrived

Flight Plot

Page will automatically refresh every two minutes.

Flight plan parsing failed; only flown route is shown


Map Options




Map Legend


Flown Route
Filed Route
Departure Airport
Arrival Airport
Navaid (VOR, NDB)
Fix

Horizontal Profiles

Position Reports

Time Latitude Longitude Heading Altitude Ground
Speed
10-Jan-18 13:16 36.079928 -115.147115 57 2096ft 0kts
10-Jan-18 13:17 36.079928 -115.147115 57 2096ft 0kts
10-Jan-18 13:18 36.079928 -115.147115 57 2096ft 0kts
10-Jan-18 13:19 36.079928 -115.147115 57 2096ft 0kts
10-Jan-18 13:20 36.079928 -115.147115 57 2096ft 0kts
10-Jan-18 13:21 36.079928 -115.147115 57 2096ft 0kts
10-Jan-18 13:22 36.079928 -115.147115 57 2096ft 0kts
10-Jan-18 13:23 36.079928 -115.147115 57 2096ft 0kts
10-Jan-18 13:24 36.079928 -115.147115 57 2096ft 0kts
10-Jan-18 13:25 36.079928 -115.147115 57 2096ft 0kts
10-Jan-18 13:26 36.079928 -115.147115 57 2096ft 0kts
10-Jan-18 13:27 36.079928 -115.147115 57 2096ft 0kts
10-Jan-18 13:28 36.079928 -115.147115 57 2096ft 0kts
10-Jan-18 13:29 36.079928 -115.147115 57 2096ft 0kts
10-Jan-18 13:30 36.079928 -115.147115 57 2096ft 0kts
10-Jan-18 13:31 36.079928 -115.147115 57 2096ft 0kts
10-Jan-18 13:32 36.079928 -115.147115 57 2096ft 0kts
10-Jan-18 13:33 36.079928 -115.147115 57 2096ft 0kts
10-Jan-18 13:34 36.079928 -115.147115 57 2096ft 0kts
10-Jan-18 13:35 36.079928 -115.147115 57 2096ft 0kts
10-Jan-18 13:36 36.079928 -115.147115 57 2096ft 0kts
10-Jan-18 13:37 36.079928 -115.147115 57 2096ft 0kts
10-Jan-18 13:38 36.079928 -115.147115 57 2096ft 0kts
10-Jan-18 13:39 36.079915 -115.147136 59 2096ft 1kts
10-Jan-18 13:40 36.079959 -115.147785 125 2099ft 2kts
10-Jan-18 13:41 36.080197 -115.148016 155 2099ft 0kts
10-Jan-18 13:42 36.080197 -115.148016 155 2099ft 0kts
10-Jan-18 13:43 36.080197 -115.148016 155 2099ft 0kts
10-Jan-18 13:44 36.080091 -115.147963 158 2099ft 1kts
10-Jan-18 13:45 36.079246 -115.147501 155 2100ft 0kts
10-Jan-18 13:46 36.079246 -115.147501 155 2100ft 0kts
10-Jan-18 13:47 36.078915 -115.147294 150 2101ft 4kts
10-Jan-18 13:48 36.078342 -115.144536 94 2092ft 18kts
10-Jan-18 13:49 36.078246 -115.136116 90 2067ft 29kts
10-Jan-18 13:50 36.078265 -115.128082 91 2045ft 21kts
10-Jan-18 13:51 36.077735 -115.121926 130 2036ft 14kts
10-Jan-18 13:52 36.077506 -115.121610 134 2037ft 6kts
10-Jan-18 13:53 36.076312 -115.121769 280 2038ft 3kts
10-Jan-18 13:54 36.076360 -115.139650 269 2081ft 170kts
10-Jan-18 13:55 36.076164 -115.218020 264 4488ft 273kts
10-Jan-18 13:56 36.019424 -115.280400 202 6979ft 301kts
10-Jan-18 13:57 35.939319 -115.307006 184 7014ft 302kts
10-Jan-18 13:58 35.858890 -115.315053 189 7393ft 290kts
10-Jan-18 13:59 35.774010 -115.305978 178 10622ft 330kts
10-Jan-18 14:00 35.677862 -115.294725 180 12989ft 354kts
10-Jan-18 14:01 35.578369 -115.298441 187 14687ft 366kts
10-Jan-18 14:02 35.474300 -115.302715 187 17912ft 389kts
10-Jan-18 14:03 35.363221 -115.307110 188 20883ft 412kts
10-Jan-18 14:04 35.250497 -115.311530 188 23018ft 429kts
10-Jan-18 14:05 35.130550 -115.316221 188 23037ft 432kts
10-Jan-18 14:06 35.010601 -115.320926 188 23039ft 432kts
10-Jan-18 14:07 34.890491 -115.325680 188 23226ft 455kts
10-Jan-18 14:08 34.764646 -115.337705 207 24034ft 440kts
10-Jan-18 14:09 34.650370 -115.387841 209 24031ft 437kts
10-Jan-18 14:10 34.536677 -115.437548 209 24033ft 437kts
10-Jan-18 14:11 34.421030 -115.488078 209 24108ft 455kts
10-Jan-18 14:12 34.306623 -115.542630 222 23952ft 413kts
10-Jan-18 14:13 34.213980 -115.611977 222 23119ft 399kts
10-Jan-18 14:14 34.123596 -115.684825 223 23098ft 421kts
10-Jan-18 14:15 34.026402 -115.762520 223 23092ft 419kts
10-Jan-18 14:16 33.931355 -115.838124 224 23045ft 382kts
10-Jan-18 14:17 33.847299 -115.905150 225 22321ft 356kts
10-Jan-18 14:18 33.755585 -115.962804 186 22343ft 409kts
10-Jan-18 14:19 33.648224 -115.925014 202 22382ft 397kts
10-Jan-18 14:20 33.567745 -115.998412 233 22315ft 360kts
10-Jan-18 14:21 33.493633 -116.079342 229 22421ft 364kts
10-Jan-18 14:22 33.413849 -116.155479 228 22347ft 387kts
10-Jan-18 14:23 33.328457 -116.236336 228 19839ft 388kts
10-Jan-18 14:24 33.250396 -116.309621 229 18412ft 338kts
10-Jan-18 14:25 33.176826 -116.378982 229 16895ft 336kts
10-Jan-18 14:26 33.105041 -116.446446 228 15199ft 324kts
10-Jan-18 14:27 33.035839 -116.511399 227 13524ft 316kts
10-Jan-18 14:28 32.968237 -116.574738 226 11845ft 308kts
10-Jan-18 14:29 32.901998 -116.636698 225 10160ft 301kts
10-Jan-18 14:30 32.837541 -116.696885 224 8471ft 295kts
10-Jan-18 14:31 32.774119 -116.756024 224 6782ft 289kts
10-Jan-18 14:32 32.713257 -116.813164 233 5988ft 263kts
10-Jan-18 14:33 32.687634 -116.884668 274 5410ft 215kts
10-Jan-18 14:34 32.692494 -116.954944 281 5020ft 209kts
10-Jan-18 14:35 32.697275 -117.017186 280 4984ft 175kts
10-Jan-18 14:36 32.704685 -117.070668 287 3983ft 149kts
10-Jan-18 14:37 32.715272 -117.114260 283 2451ft 137kts
10-Jan-18 14:38 32.725934 -117.158285 282 2502ft 158kts
10-Jan-18 14:39 32.740434 -117.207869 282 2491ft 160kts
10-Jan-18 14:40 32.754450 -117.258913 283 2489ft 161kts
10-Jan-18 14:41 32.768656 -117.308687 285 2499ft 156kts
10-Jan-18 14:42 32.782605 -117.357100 284 2495ft 154kts
10-Jan-18 14:43 32.798222 -117.401344 342 2529ft 188kts
10-Jan-18 14:44 32.831121 -117.358537 95 4980ft 221kts
10-Jan-18 14:45 32.824089 -117.285510 96 5001ft 222kts
10-Jan-18 14:46 32.815476 -117.213247 96 4981ft 222kts
10-Jan-18 14:47 32.805590 -117.141455 96 4979ft 220kts
10-Jan-18 14:48 32.790238 -117.071063 106 4979ft 222kts
10-Jan-18 14:49 32.769432 -117.002879 106 4998ft 218kts
10-Jan-18 14:50 32.747324 -116.936581 106 5000ft 214kts
10-Jan-18 14:51 32.719350 -116.857528 109 4996ft 275kts
10-Jan-18 14:52 32.654174 -116.833350 228 4134ft 263kts
10-Jan-18 14:53 32.655907 -116.895918 302 3996ft 206kts
10-Jan-18 14:54 32.674934 -116.960371 297 3832ft 184kts
10-Jan-18 14:55 32.691602 -117.018741 290 2918ft 163kts
10-Jan-18 14:56 32.703389 -117.063068 285 1704ft 134kts
10-Jan-18 14:57 32.712995 -117.105056 286 1073ft 137kts
10-Jan-18 14:58 32.723431 -117.147852 284 601ft 133kts
10-Jan-18 14:59 32.733508 -117.189605 285 21ft 100kts
10-Jan-18 15:00 32.735114 -117.198202 249 17ft 0kts
10-Jan-18 15:01 32.735114 -117.198202 249 17ft 0kts
10-Jan-18 15:02 32.735099 -117.198251 250 17ft 0kts
10-Jan-18 15:03 32.734482 -117.197730 106 17ft 2kts
10-Jan-18 15:04 32.733861 -117.195242 109 20ft 1kts
10-Jan-18 15:05 32.733239 -117.195550 225 20ft 0kts
10-Jan-18 15:06 32.733148 -117.195662 225 19ft 0kts
10-Jan-18 15:07 32.733148 -117.195662 225 19ft 0kts

Navigation Log

Ident Type
Flight plan parsing failed, navigation log unavailable